Time;durP1;ratioP1;P1;durP2;ratioP2;P2;SDS_P1;SDS_P2;PMS_P1;PMS_P2;Temp;Humidity;BMP_temperature;BMP_pressure;BME280_temperature;BME280_humidity;BME280_pressure;Samples;Min_cycle;Max_cycle;Signal;HPM_P1;HPM_P2
2022/03/17 00:01:51;;;;;;;;;;;;;;;9.70;100.00;101888.94;5234363;28;19913;-80
2022/03/17 00:04:22;;;;;;;;;;;;;;;9.65;100.00;101895.00;5234449;28;20000;-81
2022/03/17 00:06:52;;;;;;;;;;;;;;;9.59;100.00;101884.28;5234325;28;19913;-80
2022/03/17 00:09:23;;;;;;;;;;;;;;;9.57;100.00;101887.19;5216209;28;19913;-80
2022/03/17 00:11:53;;;;;;;;;;;;;;;9.57;100.00;101897.16;5235500;28;19928;-81
2022/03/17 00:14:24;;;;;;;;;;;;;;;9.50;100.00;101889.16;5217470;28;20356;-83
2022/03/17 00:16:54;;;;;;;;;;;;;;;9.49;100.00;101898.31;5216277;28;19960;-81
2022/03/17 00:19:25;;;;;;;;;;;;;;;9.47;100.00;101892.31;5216941;28;19913;-82
2022/03/17 00:21:55;;;;;;;;;;;;;;;9.48;100.00;101896.66;5235832;28;19913;-82
2022/03/17 00:24:26;;;;;;;;;;;;;;;9.51;100.00;101896.22;5234189;28;20366;-82
2022/03/17 00:26:56;;;;;;;;;;;;;;;9.53;100.00;101901.38;5234926;28;19913;-82
2022/03/17 00:29:27;;;;;;;;;;;;;;;9.58;100.00;101915.81;5234972;28;19913;-81
2022/03/17 00:31:57;;;;;;;;;;;;;;;9.62;100.00;101911.63;5234422;28;19917;-81
2022/03/17 00:34:27;;;;;;;;;;;;;;;9.66;100.00;101904.75;5234598;28;19913;-82
2022/03/17 00:36:58;;;;;;;;;;;;;;;9.69;100.00;101907.00;5234194;28;19936;-82
2022/03/17 00:39:28;;;;;;;;;;;;;;;9.72;100.00;101905.72;5234040;28;19984;-82
2022/03/17 00:41:58;;;;;;;;;;;;;;;9.73;100.00;101910.91;5234794;28;19956;-81
2022/03/17 00:44:29;;;;;;;;;;;;;;;9.76;100.00;101909.63;5216167;28;19913;-82
2022/03/17 00:47:01;;;;;;;;;;;;;;;9.78;100.00;101915.63;5234790;28;19942;-82
2022/03/17 00:49:31;;;;;;;;;;;;;;;9.81;100.00;101926.78;5216744;28;19935;-82
2022/03/17 00:52:02;;;;;;;;;;;;;;;9.83;100.00;101919.25;5234440;28;19917;-81
2022/03/17 00:54:32;;;;;;;;;;;;;;;9.85;100.00;101929.84;5215810;28;19923;-81
2022/03/17 00:57:02;;;;;;;;;;;;;;;9.88;100.00;101921.28;5234420;28;19913;-81
2022/03/17 00:59:33;;;;;;;;;;;;;;;9.90;100.00;101929.16;5233944;28;19912;-81
2022/03/17 01:02:04;;;;;;;;;;;;;;;9.93;100.00;101920.63;5234342;28;19913;-82
2022/03/17 01:04:35;;;;;;;;;;;;;;;9.93;100.00;101917.91;5215383;28;19913;-82
2022/03/17 01:07:05;;;;;;;;;;;;;;;9.93;100.00;101916.06;5234406;28;19912;-82
2022/03/17 01:09:36;;;;;;;;;;;;;;;9.95;100.00;101922.03;5215888;28;19913;-82
2022/03/17 01:12:06;;;;;;;;;;;;;;;9.97;100.00;101924.53;5215463;28;19963;-80
2022/03/17 01:14:36;;;;;;;;;;;;;;;10.00;100.00;101926.78;5232597;28;19913;-81
2022/03/17 01:17:07;;;;;;;;;;;;;;;9.76;100.00;101888.03;5233596;28;19912;-81
2022/03/17 01:19:38;;;;;;;;;;;;;;;10.04;100.00;101936.06;5214095;28;19919;-80
2022/03/17 01:22:08;;;;;;;;;;;;;;;10.06;100.00;101934.78;5233162;28;19913;-81
2022/03/17 01:24:39;;;;;;;;;;;;;;;10.07;100.00;101941.00;5232362;28;19920;-81
2022/03/17 01:27:09;;;;;;;;;;;;;;;10.09;100.00;101947.00;5233774;28;19913;-80
2022/03/17 01:29:41;;;;;;;;;;;;;;;10.12;100.00;101944.66;5214950;28;20030;-81
2022/03/17 01:32:11;;;;;;;;;;;;;;;10.15;100.00;101938.00;5215249;28;20378;-81
2022/03/17 01:34:42;;;;;;;;;;;;;;;10.16;100.00;101934.25;5232915;28;19928;-81
2022/03/17 01:37:12;;;;;;;;;;;;;;;10.18;100.00;101950.22;5232891;28;19913;-80
2022/03/17 01:39:42;;;;;;;;;;;;;;;10.19;100.00;101938.38;5233048;28;19959;-80
2022/03/17 01:42:13;;;;;;;;;;;;;;;10.20;100.00;101935.47;5233107;28;19913;-80
2022/03/17 01:44:43;;;;;;;;;;;;;;;10.25;100.00;101942.88;5233462;28;19979;-81
2022/03/17 01:47:29;;;;;;;;;;;;;;;10.29;100.00;101934.13;5214889;28;20370;-81
2022/03/17 01:50:00;;;;;;;;;;;;;;;10.34;100.00;101944.25;5233430;28;19932;-81
2022/03/17 01:52:31;;;;;;;;;;;;;;;10.37;100.00;101947.31;5232643;28;19921;-79
2022/03/17 01:55:02;;;;;;;;;;;;;;;10.43;100.00;101950.94;5232468;28;19959;-83
2022/03/17 01:57:32;;;;;;;;;;;;;;;10.48;100.00;101943.00;5214830;28;19913;-80
2022/03/17 02:00:04;;;;;;;;;;;;;;;10.53;100.00;101955.81;5232085;28;20030;-81
2022/03/17 02:02:34;;;;;;;;;;;;;;;10.55;100.00;101956.41;5232865;28;19935;-81
2022/03/17 02:05:05;;;;;;;;;;;;;;;10.58;100.00;101972.97;5232222;28;19917;-81
2022/03/17 02:07:35;;;;;;;;;;;;;;;10.62;100.00;101979.59;5214955;28;19913;-81
2022/03/17 02:10:06;;;;;;;;;;;;;;;10.64;100.00;101982.88;5214455;28;19924;-81
2022/03/17 02:15:26;;;;;;;;;;;;;;;10.67;100.00;101993.22;5231728;28;19942;-81
2022/03/17 02:17:56;;;;;;;;;;;;;;;10.66;100.00;102001.56;5215140;28;19987;-81
2022/03/17 02:20:28;;;;;;;;;;;;;;;10.60;100.00;102022.19;5214717;28;19916;-81
2022/03/17 02:25:33;;;;;;;;;;;;;;;10.34;100.00;102027.94;5233072;28;20003;-81
2022/03/17 02:25:56;;;;;;;;;;;;;;;9.93;100.00;102047.44;5232070;28;19927;-80
2022/03/17 02:28:27;;;;;;;;;;;;;;;9.64;100.00;102054.34;5215186;28;20012;-81
2022/03/17 02:30:58;;;;;;;;;;;;;;;9.47;100.00;102067.56;5234345;28;19917;-82
2022/03/17 02:33:28;;;;;;;;;;;;;;;9.27;100.00;102066.84;5218831;28;19962;-81
2022/03/17 02:35:59;;;;;;;;;;;;;;;9.16;100.00;102079.19;5237199;28;19920;-81
2022/03/17 02:38:29;;;;;;;;;;;;;;;9.04;100.00;102086.28;5218384;28;19921;-82
2022/03/17 02:40:59;;;;;;;;;;;;;;;8.93;100.00;102093.19;5236701;28;19939;-82
2022/03/17 02:43:29;;;;;;;;;;;;;;;8.80;100.00;102112.09;5235701;28;20009;-83
2022/03/17 02:46:00;;;;;;;;;;;;;;;8.66;100.00;102105.94;5217735;28;19924;-82
2022/03/17 02:48:30;;;;;;;;;;;;;;;8.58;100.00;102129.59;5235920;28;19931;-82
2022/03/17 02:51:00;;;;;;;;;;;;;;;8.51;100.00;102121.53;5217927;28;19917;-81
2022/03/17 02:53:31;;;;;;;;;;;;;;;8.46;100.00;102122.16;5235272;28;19913;-81
2022/03/17 02:56:01;;;;;;;;;;;;;;;8.44;100.00;102123.41;5236017;28;20051;-82
2022/03/17 02:58:31;;;;;;;;;;;;;;;8.44;100.00;102140.38;5235948;28;19913;-82
2022/03/17 03:01:02;;;;;;;;;;;;;;;8.42;100.00;102137.06;5235521;28;19913;-81
2022/03/17 03:03:32;;;;;;;;;;;;;;;8.41;100.00;102156.13;5216783;28;20066;-82
2022/03/17 03:06:02;;;;;;;;;;;;;;;8.35;100.00;102156.97;5236039;28;19962;-81
2022/03/17 03:08:34;;;;;;;;;;;;;;;8.31;100.00;102167.31;5235703;28;20004;-81
2022/03/17 03:11:04;;;;;;;;;;;;;;;8.28;100.00;102175.78;5268201;22;19925;-81
2022/03/17 03:13:36;;;;;;;;;;;;;;;8.27;100.00;102174.13;5251554;28;19946;-82
2022/03/17 03:16:06;;;;;;;;;;;;;;;8.29;100.00;102172.06;5260811;28;20285;-82
2022/03/17 03:18:37;;;;;;;;;;;;;;;8.20;100.00;102183.22;5279023;28;20028;-81
2022/03/17 03:21:10;;;;;;;;;;;;;;;8.18;100.00;102194.22;5259419;28;19953;-82
2022/03/17 03:23:40;;;;;;;;;;;;;;;8.14;100.00;102201.88;5260507;28;19912;-81
2022/03/17 03:26:11;;;;;;;;;;;;;;;8.12;100.00;102209.31;5261215;28;19923;-81
2022/03/17 03:28:41;;;;;;;;;;;;;;;8.12;100.00;102217.38;5279358;28;19920;-82
2022/03/17 03:31:11;;;;;;;;;;;;;;;8.12;100.00;102221.94;5260654;28;19920;-82
2022/03/17 03:33:42;;;;;;;;;;;;;;;8.10;100.00;102219.44;5278720;28;19912;-82
2022/03/17 03:39:01;;;;;;;;;;;;;;;8.03;100.00;102236.66;5279532;28;19919;-79
2022/03/17 03:41:31;;;;;;;;;;;;;;;7.99;100.00;102238.09;5262868;28;20366;-80
2022/03/17 03:44:02;;;;;;;;;;;;;;;7.98;100.00;102257.94;5262415;28;20336;-81
2022/03/17 03:46:33;;;;;;;;;;;;;;;7.93;100.00;102252.34;5280658;28;19987;-82
2022/03/17 03:49:03;;;;;;;;;;;;;;;7.91;100.00;102257.09;5279752;28;19912;-82
2022/03/17 03:51:33;;;;;;;;;;;;;;;7.89;100.00;102262.69;5278037;28;19922;-82
2022/03/17 03:54:13;;;;;;;;;;;;;;;7.90;100.00;102277.78;5260035;28;19986;-82
2022/03/17 03:56:51;;;;;;;;;;;;;;;7.90;100.00;102277.78;5278526;28;19912;-83
2022/03/17 03:59:25;;;;;;;;;;;;;;;7.92;100.00;102294.56;5259971;28;19934;-82
2022/03/17 04:01:58;;;;;;;;;;;;;;;7.92;100.00;102291.84;5278090;28;19943;-82
2022/03/17 04:04:28;;;;;;;;;;;;;;;7.91;100.00;102297.44;5276991;28;19919;-83
2022/03/17 04:06:59;;;;;;;;;;;;;;;7.88;100.00;102304.06;5278313;28;19912;-81
2022/03/17 04:09:32;;;;;;;;;;;;;;;7.88;100.00;102317.50;5278247;28;19912;-81
2022/03/17 04:12:03;;;;;;;;;;;;;;;7.89;100.00;102329.91;5259790;28;19920;-82
2022/03/17 04:14:33;;;;;;;;;;;;;;;7.86;100.00;102329.50;5258790;28;20397;-80
2022/03/17 04:17:04;;;;;;;;;;;;;;;7.83;100.00;102338.78;5278486;28;19957;-81
2022/03/17 04:19:34;;;;;;;;;;;;;;;7.84;100.00;102348.50;5259787;28;20373;-82
2022/03/17 04:22:05;;;;;;;;;;;;;;;7.85;100.00;102355.56;5259125;28;19912;-82
2022/03/17 04:24:37;;;;;;;;;;;;;;;7.83;100.00;102354.94;5277849;28;19912;-82
2022/03/17 04:27:10;;;;;;;;;;;;;;;7.86;100.00;102356.38;5259669;28;19912;-81
2022/03/17 04:29:40;;;;;;;;;;;;;;;7.84;100.00;102364.66;5277320;28;20523;-81
2022/03/17 04:32:11;;;;;;;;;;;;;;;7.82;100.00;102364.03;5259914;28;19960;-83
2022/03/17 04:34:41;;;;;;;;;;;;;;;7.82;100.00;102369.41;5278063;28;19951;-82
2022/03/17 04:37:11;;;;;;;;;;;;;;;7.82;100.00;102376.63;5277800;28;19927;-82
2022/03/17 04:39:42;;;;;;;;;;;;;;;7.80;100.00;102383.03;5278470;28;19999;-81
2022/03/17 04:42:12;;;;;;;;;;;;;;;7.81;100.00;102397.31;5279128;28;19912;-82
2022/03/17 04:44:42;;;;;;;;;;;;;;;7.82;100.00;102404.38;5261055;28;19911;-81
2022/03/17 04:47:13;;;;;;;;;;;;;;;7.82;100.00;102409.75;5278944;28;20105;-80
2022/03/17 04:49:43;;;;;;;;;;;;;;;7.82;100.00;102414.28;5279575;28;19977;-80
2022/03/17 04:55:03;;;;;;;;;;;;;;;7.78;100.00;102433.53;5276002;28;19961;-82
2022/03/17 04:57:33;;;;;;;;;;;;;;;7.77;100.00;102439.13;5277620;28;19912;-82
2022/03/17 05:00:04;;;;;;;;;;;;;;;7.75;100.00;102439.31;5260238;28;19966;-80
2022/03/17 05:02:34;;;;;;;;;;;;;;;7.73;100.00;102443.22;5278205;28;19955;-82
2022/03/17 05:05:05;;;;;;;;;;;;;;;7.70;100.00;102444.44;5277901;28;19912;-82
2022/03/17 05:07:35;;;;;;;;;;;;;;;7.71;100.00;102462.25;5277178;28;19916;-82
2022/03/17 05:10:05;;;;;;;;;;;;;;;7.72;100.00;102468.44;5258837;28;19912;-83
2022/03/17 05:12:36;;;;;;;;;;;;;;;7.75;100.00;102466.22;5276822;28;19932;-83
2022/03/17 05:15:06;;;;;;;;;;;;;;;7.73;100.00;102476.31;5258451;28;19919;-83
2022/03/17 05:17:38;;;;;;;;;;;;;;;7.77;100.00;102476.78;5277209;28;19919;-82
2022/03/17 05:20:10;;;;;;;;;;;;;;;7.76;100.00;102496.63;5258316;28;20396;-83
2022/03/17 05:22:43;;;;;;;;;;;;;;;7.74;100.00;102493.28;5258738;28;19965;-83
2022/03/17 05:25:14;;;;;;;;;;;;;;;7.69;100.00;102498.44;5276424;28;19920;-82
2022/03/17 05:27:44;;;;;;;;;;;;;;;7.68;100.00;102505.66;5259388;28;19975;-83
2022/03/17 05:30:16;;;;;;;;;;;;;;;7.69;100.00;102512.69;5258716;28;19912;-83
2022/03/17 05:32:47;;;;;;;;;;;;;;;7.69;100.00;102514.56;5258850;28;19912;-83
2022/03/17 05:35:17;;;;;;;;;;;;;;;7.67;100.00;102520.13;5265168;28;19953;-82
2022/03/17 05:37:48;;;;;;;;;;;;;;;7.65;100.00;102526.72;5282991;28;19979;-81
2022/03/17 05:40:19;;;;;;;;;;;;;;;7.61;100.00;102542.41;5278260;28;19983;-81
2022/03/17 05:42:54;;;;;;;;;;;;;;;7.57;100.00;102543.00;5222366;28;20264;-81
2022/03/17 05:45:28;;;;;;;;;;;;;;;7.55;100.00;102547.72;5216969;28;19952;-82
2022/03/17 05:47:59;;;;;;;;;;;;;;;7.55;100.00;102553.13;5234961;28;19935;-83
2022/03/17 05:50:31;;;;;;;;;;;;;;;7.55;100.00;102558.50;5232593;28;19925;-83
2022/03/17 05:53:01;;;;;;;;;;;;;;;7.52;100.00;102565.09;5255464;28;20121;-83
2022/03/17 05:55:32;;;;;;;;;;;;;;;7.53;100.00;102565.91;5237255;28;19917;-83
2022/03/17 05:58:02;;;;;;;;;;;;;;;7.51;100.00;102576.06;5237547;28;19962;-82
2022/03/17 06:00:33;;;;;;;;;;;;;;;7.49;100.00;102581.63;5236931;28;19934;-81
2022/03/17 06:03:06;;;;;;;;;;;;;;;7.52;100.00;102580.38;5254653;28;19916;-82
2022/03/17 06:05:36;;;;;;;;;;;;;;;7.52;100.00;102593.81;5255774;28;19919;-82
2022/03/17 06:08:08;;;;;;;;;;;;;;;7.51;100.00;102598.38;5260351;28;19917;-82
2022/03/17 06:10:40;;;;;;;;;;;;;;;7.48;100.00;102593.41;5258636;28;20403;-83
2022/03/17 06:13:10;;;;;;;;;;;;;;;7.48;100.00;102603.31;5240056;28;19927;-82
2022/03/17 06:15:40;;;;;;;;;;;;;;;7.48;100.00;102611.38;5241264;28;19972;-82
2022/03/17 06:18:11;;;;;;;;;;;;;;;7.49;100.00;102619.25;5259344;28;19912;-82
2022/03/17 06:20:41;;;;;;;;;;;;;;;7.48;100.00;102622.97;5240791;28;19919;-82
2022/03/17 06:23:11;;;;;;;;;;;;;;;7.45;100.00;102628.72;5225872;28;19990;-82
2022/03/17 06:25:42;;;;;;;;;;;;;;;7.44;100.00;102635.13;5236746;28;19913;-82
2022/03/17 06:28:14;;;;;;;;;;;;;;;7.44;100.00;102649.41;5240628;28;19934;-80
2022/03/17 06:30:44;;;;;;;;;;;;;;;7.40;100.00;102642.72;5239914;28;19916;-81
2022/03/17 06:33:16;;;;;;;;;;;;;;;7.40;100.00;102650.81;5237551;28;20612;-82
2022/03/17 06:35:46;;;;;;;;;;;;;;;7.40;100.00;102658.88;5256465;28;20358;-81
2022/03/17 06:38:17;;;;;;;;;;;;;;;7.34;100.00;102664.16;5255560;28;19913;-81
2022/03/17 06:40:47;;;;;;;;;;;;;;;7.29;100.00;102671.97;5238129;28;20003;-80
2022/03/17 06:43:17;;;;;;;;;;;;;;;7.26;100.00;102681.22;5258648;28;19912;-82
2022/03/17 06:45:47;;;;;;;;;;;;;;;7.25;100.00;102687.63;5258098;28;19948;-82
2022/03/17 06:48:20;;;;;;;;;;;;;;;7.22;100.00;102693.38;5258117;28;20361;-82
2022/03/17 06:50:50;;;;;;;;;;;;;;;7.24;100.00;102707.44;5258271;28;19916;-83
2022/03/17 06:53:20;;;;;;;;;;;;;;;7.27;100.00;102707.06;5258776;28;19934;-83
2022/03/17 06:55:50;;;;;;;;;;;;;;;7.28;100.00;102710.59;5258586;28;19919;-82
2022/03/17 06:58:21;;;;;;;;;;;;;;;7.31;100.00;102712.91;5258788;28;19913;-83
2022/03/17 07:00:51;;;;;;;;;;;;;;;7.32;100.00;102728.84;5258642;28;19928;-82
2022/03/17 07:03:21;;;;;;;;;;;;;;;7.29;100.00;102731.91;5258098;28;20389;-81
2022/03/17 07:05:51;;;;;;;;;;;;;;;7.26;100.00;102734.97;5258682;28;19916;-83
2022/03/17 07:08:22;;;;;;;;;;;;;;;7.29;100.00;102729.22;5241140;28;19917;-83
2022/03/17 07:10:52;;;;;;;;;;;;;;;7.32;100.00;102747.66;5258372;28;20474;-83
2022/03/17 07:13:22;;;;;;;;;;;;;;;7.33;100.00;102752.00;5259208;28;19920;-83
2022/03/17 07:15:53;;;;;;;;;;;;;;;7.37;100.00;102749.78;5260359;28;19999;-83
2022/03/17 07:18:23;;;;;;;;;;;;;;;7.35;100.00;102767.94;5258216;28;19920;-82
2022/03/17 07:20:57;;;;;;;;;;;;;;;7.33;100.00;102768.13;5241391;28;19913;-82
2022/03/17 07:23:27;;;;;;;;;;;;;;;7.36;100.00;102765.09;5240647;28;20006;-83
2022/03/17 07:25:58;;;;;;;;;;;;;;;7.40;100.00;102774.44;5240831;28;20250;-83
2022/03/17 07:28:28;;;;;;;;;;;;;;;7.43;100.00;102779.44;5258683;28;19947;-83
2022/03/17 07:30:58;;;;;;;;;;;;;;;7.44;100.00;102789.19;5240382;28;19920;-83
2022/03/17 07:33:28;;;;;;;;;;;;;;;7.45;100.00;102793.53;5258375;28;19913;-83
2022/03/17 07:35:59;;;;;;;;;;;;;;;7.45;100.00;102795.38;5257499;28;20024;-83
2022/03/17 07:38:29;;;;;;;;;;;;;;;7.50;100.00;102800.19;5240603;28;20373;-83
2022/03/17 07:40:59;;;;;;;;;;;;;;;7.54;100.00;102809.53;5258033;28;20296;-83
2022/03/17 07:43:29;;;;;;;;;;;;;;;7.59;100.00;102813.31;5257952;28;20411;-83
2022/03/17 07:46:00;;;;;;;;;;;;;;;7.63;100.00;102822.69;5240072;28;19913;-83
2022/03/17 07:48:30;;;;;;;;;;;;;;;7.61;100.00;102822.03;5258916;28;19919;-83
2022/03/17 07:51:01;;;;;;;;;;;;;;;7.64;100.00;102828.91;5241020;28;20326;-81
2022/03/17 07:53:31;;;;;;;;;;;;;;;7.65;100.00;102834.09;5258603;28;19912;-82
2022/03/17 07:56:01;;;;;;;;;;;;;;;7.69;100.00;102838.06;5262955;28;20007;-82
2022/03/17 07:58:32;;;;;;;;;;;;;;;7.69;100.00;102842.63;5247246;28;19965;-81
2022/03/17 08:01:03;;;;;;;;;;;;;;;7.70;100.00;102845.13;5240776;28;19956;-83
2022/03/17 08:03:33;;;;;;;;;;;;;;;7.68;100.00;102859.78;5259973;28;19919;-81
2022/03/17 08:06:04;;;;;;;;;;;;;;;7.66;100.00;102867.19;5250117;28;19920;-81
2022/03/17 08:08:34;;;;;;;;;;;;;;;7.65;100.00;102865.53;5247334;28;20285;-83
2022/03/17 08:11:04;;;;;;;;;;;;;;;7.66;100.00;102870.72;5241696;28;19920;-82
2022/03/17 08:13:34;;;;;;;;;;;;;;;7.65;100.00;102882.50;5247383;28;20026;-82
2022/03/17 08:16:06;;;;;;;;;;;;;;;7.68;100.00;102883.97;5247188;28;19938;-81
2022/03/17 08:18:36;;;;;;;;;;;;;;;7.70;100.00;102881.94;5266627;28;19913;-82
2022/03/17 08:21:07;;;;;;;;;;;;;;;7.73;100.00;102885.09;5267232;28;20007;-83
2022/03/17 08:23:37;;;;;;;;;;;;;;;7.75;100.00;102887.59;5250209;28;19981;-81
2022/03/17 08:26:07;;;;;;;;;;;;;;;7.76;100.00;102900.03;5249369;28;19913;-83
2022/03/17 08:28:38;;;;;;;;;;;;;;;7.80;100.00;102895.91;5267023;28;19976;-81
2022/03/17 08:31:08;;;;;;;;;;;;;;;7.79;100.00;102900.47;5249274;28;19956;-81
2022/03/17 08:33:39;;;;;;;;;;;;;;;7.74;100.00;102900.19;5266323;28;19912;-82
2022/03/17 08:36:09;;;;;;;;;;;;;;;7.80;100.00;102910.19;5249023;28;19912;-85
2022/03/17 08:38:40;;;;;;;;;;;;;;;7.86;100.00;102908.59;5249490;28;19912;-85
2022/03/17 08:41:10;;;;;;;;;;;;;;;7.88;100.00;102929.94;5265857;28;19912;-85
2022/03/17 08:43:40;;;;;;;;;;;;;;;7.84;100.00;102934.84;5266219;28;19923;-85
2022/03/17 08:51:53;;;;;;;;;;;;;;;7.95;100.00;102955.91;5266886;28;19924;-85
2022/03/17 08:54:25;;;;;;;;;;;;;;;8.00;100.00;102955.34;5246711;28;19912;-86
2022/03/17 08:56:59;;;;;;;;;;;;;;;8.10;100.00;102956.72;5267814;28;19912;-82
2022/03/17 08:59:31;;;;;;;;;;;;;;;8.16;100.00;102959.69;5266741;28;19912;-86
2022/03/17 09:02:03;;;;;;;;;;;;;;;8.08;100.00;102953.38;5265788;28;19912;-87
2022/03/17 09:04:34;;;;;;;;;;;;;;;8.06;100.00;102960.84;5250487;28;19947;-85
2022/03/17 09:07:05;;;;;;;;;;;;;;;8.04;100.00;102973.63;5251611;28;19912;-83
2022/03/17 09:09:36;;;;;;;;;;;;;;;8.09;100.00;102978.44;5251510;28;19917;-84
2022/03/17 09:12:07;;;;;;;;;;;;;;;8.18;100.00;102973.78;5293548;22;19947;-82
2022/03/17 09:14:40;;;;;;;;;;;;;;;8.17;100.00;102980.19;5257062;28;19916;-82
2022/03/17 09:17:10;;;;;;;;;;;;;;;8.24;100.00;102986.50;5274826;28;19962;-83
2022/03/17 09:19:41;;;;;;;;;;;;;;;8.32;100.00;102989.09;5256876;28;19916;-82
2022/03/17 09:22:11;;;;;;;;;;;;;;;8.36;100.00;102999.31;5275259;28;19955;-83
2022/03/17 09:24:45;;;;;;;;;;;;;;;8.54;100.00;102998.91;5274769;28;19916;-81
2022/03/17 09:27:16;;;;;;;;;;;;;;;8.72;100.00;102999.28;5275581;28;20384;-83
2022/03/17 09:29:46;;;;;;;;;;;;;;;8.76;100.00;103003.28;5275097;28;19919;-84
2022/03/17 09:32:20;;;;;;;;;;;;;;;8.70;100.00;102998.66;5274907;28;20400;-83
2022/03/17 09:34:50;;;;;;;;;;;;;;;8.83;100.00;103005.22;5283408;28;20043;-83
2022/03/17 09:37:20;;;;;;;;;;;;;;;8.96;100.00;103022.31;5288061;28;19912;-83
2022/03/17 09:39:51;;;;;;;;;;;;;;;9.10;100.00;103017.91;5281072;28;20075;-82
2022/03/17 09:42:22;;;;;;;;;;;;;;;9.26;100.00;103023.00;5266444;28;19940;-81
2022/03/17 09:44:55;;;;;;;;;;;;;;;9.19;100.00;103030.22;5264253;28;19923;-81
2022/03/17 09:47:27;;;;;;;;;;;;;;;9.05;100.00;103028.44;5246052;28;20019;-80
2022/03/17 09:49:59;;;;;;;;;;;;;;;8.86;100.00;103038.00;5247171;28;19999;-80
2022/03/17 09:52:31;;;;;;;;;;;;;;;8.92;100.00;103041.78;5245731;28;19920;-82
2022/03/17 09:55:01;;;;;;;;;;;;;;;9.01;100.00;103040.63;5264385;28;20006;-82
2022/03/17 09:57:32;;;;;;;;;;;;;;;9.22;100.00;103043.31;5264144;28;19916;-83
2022/03/17 10:00:03;;;;;;;;;;;;;;;9.27;100.00;103042.72;5264441;28;19913;-83
2022/03/17 10:02:34;;;;;;;;;;;;;;;9.28;100.00;103052.47;5263750;28;19912;-82
2022/03/17 10:05:04;;;;;;;;;;;;;;;9.29;100.00;103056.84;5263321;28;19933;-83
2022/03/17 10:07:35;;;;;;;;;;;;;;;9.47;100.00;103054.53;5264675;28;19913;-83
2022/03/17 10:10:05;;;;;;;;;;;;;;;9.31;100.00;103063.72;5265666;28;19912;-83
2022/03/17 10:12:36;;;;;;;;;;;;;;;9.41;100.00;103064.22;5263226;28;19931;-83
2022/03/17 10:15:15;;;;;;;;;;;;;;;9.43;100.00;103074.81;5267917;28;19912;-82
2022/03/17 10:17:46;;;;;;;;;;;;;;;9.48;100.00;103067.81;5273814;28;19918;-82
2022/03/17 10:20:16;;;;;;;;;;;;;;;9.52;100.00;103079.06;5273280;28;19943;-81
2022/03/17 10:22:49;;;;;;;;;;;;;;;9.63;100.00;103078.50;5256797;28;19913;-81
2022/03/17 10:25:21;;;;;;;;;;;;;;;9.70;100.00;103084.78;5274250;28;19943;-83
2022/03/17 10:27:54;;;;;;;;;;;;;;;9.75;100.00;103092.31;5263755;28;20433;-81
2022/03/17 10:30:27;;;;;;;;;;;;;;;9.86;100.00;103096.31;5245582;28;19913;-82
2022/03/17 10:32:58;;;;;;;;;;;;;;;9.89;100.00;103094.06;5263422;28;19920;-81
2022/03/17 10:35:36;;;;;;;;;;;;;;;10.01;100.00;103097.91;5268247;28;19912;-82
2022/03/17 10:38:11;;;;;;;;;;;;;;;10.14;100.00;103103.38;5277457;28;19975;-82
2022/03/17 10:40:41;;;;;;;;;;;;;;;10.15;100.00;103104.19;5259856;28;19901;-81
2022/03/17 10:43:18;;;;;;;;;;;;;;;10.02;100.00;103129.25;5259892;28;19943;-82
2022/03/17 10:46:03;;;;;;;;;;;;;;;9.95;100.00;103122.97;5260438;28;19908;-82
2022/03/17 10:48:33;;;;;;;;;;;;;;;9.98;100.00;103121.75;5256281;28;19912;-82
2022/03/17 10:51:04;;;;;;;;;;;;;;;9.88;100.00;103132.88;5265270;28;19971;-83
2022/03/17 10:53:39;;;;;;;;;;;;;;;9.65;100.00;103137.66;5260826;28;19912;-82
2022/03/17 10:56:13;;;;;;;;;;;;;;;9.69;100.00;103133.56;5264038;28;19938;-82
2022/03/17 10:58:43;;;;;;;;;;;;;;;9.81;100.00;103137.41;5263580;28;19912;-83
2022/03/17 11:01:13;;;;;;;;;;;;;;;9.98;100.00;103136.06;5265398;28;19918;-83
2022/03/17 11:03:44;;;;;;;;;;;;;;;10.03;100.00;103139.03;5281686;28;19912;-82
2022/03/17 11:06:15;;;;;;;;;;;;;;;10.16;100.00;103139.09;5280816;28;19912;-81
2022/03/17 11:08:46;;;;;;;;;;;;;;;10.09;100.00;103138.25;5261690;28;20281;-83
2022/03/17 11:11:18;;;;;;;;;;;;;;;9.86;100.00;103144.88;5261086;28;19917;-81
2022/03/17 11:13:50;;;;;;;;;;;;;;;10.08;100.00;103143.84;5281250;28;19942;-82
2022/03/17 11:16:21;;;;;;;;;;;;;;;10.24;100.00;103148.13;5280830;28;19933;-82
2022/03/17 11:18:53;;;;;;;;;;;;;;;10.40;100.00;103145.91;5263404;28;20065;-82
2022/03/17 11:21:27;;;;;;;;;;;;;;;10.34;100.00;103154.84;5281223;28;20023;-83
2022/03/17 11:24:04;;;;;;;;;;;;;;;10.24;100.00;103151.66;5280910;28;19912;-83
2022/03/17 11:26:36;;;;;;;;;;;;;;;10.25;100.00;103172.22;5296512;28;19912;-83
2022/03/17 11:29:10;;;;;;;;;;;;;;;10.19;100.00;103164.03;5280805;28;19912;-82
2022/03/17 11:32:02;;;;;;;;;;;;;;;10.33;100.00;103155.88;5280239;28;20127;-82
2022/03/17 11:34:38;;;;;;;;;;;;;;;10.40;100.00;103167.53;5278758;28;20014;-82
2022/03/17 11:37:15;;;;;;;;;;;;;;;10.31;100.00;103157.09;5279502;28;19913;-82
2022/03/17 11:39:48;;;;;;;;;;;;;;;10.29;100.00;103164.56;5261421;28;19952;-82
2022/03/17 11:42:34;;;;;;;;;;;;;;;10.15;100.00;103169.81;5280510;28;19912;-81
2022/03/17 11:45:11;;;;;;;;;;;;;;;10.31;100.00;103167.91;5280728;28;19912;-82
2022/03/17 11:47:58;;;;;;;;;;;;;;;10.37;100.00;103170.66;5280132;28;19980;-83
2022/03/17 11:50:36;;;;;;;;;;;;;;;10.43;100.00;103177.94;5278340;28;19912;-81
2022/03/17 11:53:08;;;;;;;;;;;;;;;10.45;100.00;103183.16;5279223;28;19969;-83
2022/03/17 11:55:41;;;;;;;;;;;;;;;10.33;100.00;103187.44;5278498;28;19934;-82
2022/03/17 11:58:19;;;;;;;;;;;;;;;10.22;100.00;103185.28;5279204;28;19955;-84
2022/03/17 12:01:03;;;;;;;;;;;;;;;10.05;100.00;103196.34;5260983;28;19987;-83
2022/03/17 12:03:47;;;;;;;;;;;;;;;10.07;100.00;103183.50;5259483;28;19923;-83
2022/03/17 12:06:19;;;;;;;;;;;;;;;10.32;100.00;103188.47;5259839;28;19912;-82
2022/03/17 12:08:51;;;;;;;;;;;;;;;10.37;100.00;103191.44;5260418;28;19912;-83
2022/03/17 12:11:22;;;;;;;;;;;;;;;10.49;100.00;103192.53;5278399;28;19928;-81
2022/03/17 12:14:14;;;;;;;;;;;;;;;10.48;100.00;103190.84;5259222;28;19934;-81
2022/03/17 12:16:48;;;;;;;;;;;;;;;10.47;100.00;103197.28;5260839;28;19918;-82
2022/03/17 12:19:38;;;;;;;;;;;;;;;10.44;100.00;103206.63;5293976;28;19934;-83
2022/03/17 12:22:12;;;;;;;;;;;;;;;10.54;100.00;103203.59;5278330;28;19912;-81
2022/03/17 12:24:45;;;;;;;;;;;;;;;10.53;100.00;103204.63;5294063;28;19916;-82
2022/03/17 12:27:22;;;;;;;;;;;;;;;10.68;100.00;103199.91;5259983;28;20377;-82
2022/03/17 12:30:02;;;;;;;;;;;;;;;10.64;100.00;103201.38;5260185;28;19915;-81
2022/03/17 12:32:40;;;;;;;;;;;;;;;10.76;100.00;103204.31;5259141;28;19926;-85
2022/03/17 12:35:11;;;;;;;;;;;;;;;10.65;100.00;103213.84;5277426;28;19916;-82
2022/03/17 12:37:42;;;;;;;;;;;;;;;10.77;100.00;103214.94;5278107;28;19959;-81
2022/03/17 12:40:14;;;;;;;;;;;;;;;10.75;100.00;103211.59;5278091;28;19912;-83
2022/03/17 12:42:47;;;;;;;;;;;;;;;10.76;100.00;103207.84;5258934;28;19912;-82
2022/03/17 12:45:18;;;;;;;;;;;;;;;10.52;100.00;103197.53;5260257;28;19916;-82
2022/03/17 12:47:56;;;;;;;;;;;;;;;10.53;100.00;103203.78;5278060;28;20014;-82
2022/03/17 12:50:28;;;;;;;;;;;;;;;10.53;100.00;103212.72;5259956;28;19912;-83
2022/03/17 12:52:58;;;;;;;;;;;;;;;10.60;100.00;103205.50;5260128;28;20408;-82
2022/03/17 12:55:29;;;;;;;;;;;;;;;10.65;100.00;103207.59;5277804;28;19987;-82
2022/03/17 12:58:02;;;;;;;;;;;;;;;10.62;100.00;103203.44;5260480;28;19920;-82
2022/03/17 13:00:32;;;;;;;;;;;;;;;10.68;100.00;103191.78;5278327;28;20288;-82
2022/03/17 13:03:02;;;;;;;;;;;;;;;10.62;100.00;103202.59;5260048;28;19920;-82
2022/03/17 13:08:23;;;;;;;;;;;;;;;10.87;100.00;103205.63;5277914;28;20385;-82
2022/03/17 13:16:32;;;;;;;;;;;;;;;11.32;100.00;103204.13;5276867;28;19922;-82
2022/03/17 13:19:02;;;;;;;;;;;;;;;11.24;100.00;103191.66;5259362;28;20240;-82